Time;durP1;ratioP1;P1;durP2;ratioP2;P2;SDS_P1;SDS_P2;PMS_P1;PMS_P2;Temp;Humidity;BMP_temperature;BMP_pressure;BME280_temperature;BME280_humidity;BME280_pressure;Samples;Min_cycle;Max_cycle;Signal;HPM_P1;HPM_P2
2022/05/09 00:02:11;;;;;;;17.08;4.38;;;6.60;99.90;;;;;;5051784;28;20171;-74
2022/05/09 00:04:37;;;;;;;13.52;2.63;;;6.60;99.90;;;;;;5035494;28;20147;-74
2022/05/09 00:07:07;;;;;;;13.10;2.93;;;6.60;99.90;;;;;;5052987;28;20132;-75
2022/05/09 00:09:33;;;;;;;14.13;3.25;;;6.60;99.90;;;;;;5051808;28;20524;-74
2022/05/09 00:11:59;;;;;;;15.23;3.33;;;6.50;99.90;;;;;;5051612;28;20049;-75
2022/05/09 00:14:25;;;;;;;18.88;3.35;;;6.50;99.90;;;;;;5052081;28;20045;-74
2022/05/09 00:16:52;;;;;;;15.43;3.05;;;6.50;99.90;;;;;;5052571;28;20051;-74
2022/05/09 00:19:20;;;;;;;15.45;3.75;;;6.40;99.90;;;;;;5052773;28;20049;-74
2022/05/09 00:21:48;;;;;;;24.75;4.22;;;6.40;99.90;;;;;;5051109;28;20518;-74
2022/05/09 00:24:17;;;;;;;15.27;3.55;;;6.40;99.90;;;;;;5051155;28;20117;-74
2022/05/09 00:26:47;;;;;;;23.17;3.83;;;6.40;99.90;;;;;;5053026;28;20056;-75
2022/05/09 00:29:14;;;;;;;13.48;3.33;;;6.30;99.90;;;;;;5052049;28;20110;-75
2022/05/09 00:31:43;;;;;;;20.58;3.30;;;6.30;99.90;;;;;;5052799;28;20041;-74
2022/05/09 00:34:16;;;;;;;16.63;3.60;;;6.30;99.90;;;;;;5051249;28;20044;-74
2022/05/09 00:36:42;;;;;;;18.58;3.40;;;6.30;99.90;;;;;;5053003;28;20047;-74
2022/05/09 00:39:08;;;;;;;21.02;3.58;;;6.20;99.90;;;;;;5051208;28;20049;-73
2022/05/09 00:41:41;;;;;;;18.40;3.28;;;6.20;99.90;;;;;;5052846;28;20037;-73
2022/05/09 00:44:13;;;;;;;22.75;3.25;;;6.20;99.90;;;;;;5035173;28;20049;-74
2022/05/09 00:46:42;;;;;;;16.65;3.58;;;6.20;99.90;;;;;;5051072;28;20144;-73
2022/05/09 00:49:27;;;;;;;21.27;4.18;;;6.20;99.90;;;;;;5052306;28;20044;-73
2022/05/09 00:52:03;;;;;;;17.90;3.53;;;6.20;99.90;;;;;;5051181;28;20045;-73
2022/05/09 00:54:37;;;;;;;12.30;3.20;;;6.10;99.90;;;;;;5052328;28;20044;-74
2022/05/09 00:57:11;;;;;;;19.20;3.65;;;6.10;99.90;;;;;;5051214;28;20345;-74
2022/05/09 00:59:38;;;;;;;17.40;3.47;;;6.10;99.90;;;;;;5052402;28;20049;-74
2022/05/09 01:02:04;;;;;;;10.30;3.20;;;6.10;99.90;;;;;;5053952;28;20051;-74
2022/05/09 01:04:40;;;;;;;16.60;4.07;;;6.10;99.90;;;;;;5039039;28;20041;-73
2022/05/09 01:07:06;;;;;;;20.98;3.30;;;6.10;99.90;;;;;;5056066;28;20466;-75
2022/05/09 01:09:32;;;;;;;11.98;3.28;;;6.00;99.90;;;;;;5038824;28;20091;-73
2022/05/09 01:11:58;;;;;;;18.25;3.70;;;6.00;99.90;;;;;;5039616;28;20125;-73
2022/05/09 01:14:28;;;;;;;23.83;3.42;;;6.00;99.90;;;;;;5055852;28;20496;-73
2022/05/09 01:16:55;;;;;;;23.00;4.15;;;5.90;99.90;;;;;;5057259;28;20041;-74
2022/05/09 01:19:33;;;;;;;21.60;3.88;;;5.90;99.90;;;;;;5038411;28;20379;-74
2022/05/09 01:22:00;;;;;;;22.25;3.47;;;5.90;99.90;;;;;;5056964;28;20381;-74
2022/05/09 01:24:27;;;;;;;19.95;4.93;;;5.90;99.90;;;;;;5054589;28;20056;-74
2022/05/09 01:26:53;;;;;;;20.40;3.88;;;5.90;99.90;;;;;;5055560;28;20094;-73
2022/05/09 01:29:34;;;;;;;24.07;3.83;;;5.90;99.90;;;;;;5054464;28;20124;-74
2022/05/09 01:32:01;;;;;;;15.32;3.42;;;5.80;99.90;;;;;;5056119;28;20053;-74
2022/05/09 01:34:29;;;;;;;19.42;3.45;;;5.80;99.90;;;;;;5054390;28;20060;-74
2022/05/09 01:36:59;;;;;;;17.52;3.88;;;5.80;99.90;;;;;;5056156;28;20527;-74
2022/05/09 01:39:25;;;;;;;16.73;3.80;;;5.80;99.90;;;;;;5055638;28;20461;-75
2022/05/09 01:41:51;;;;;;;12.77;3.70;;;5.80;99.90;;;;;;5038084;28;20049;-74
2022/05/09 01:44:17;;;;;;;16.67;4.28;;;5.80;99.90;;;;;;5054574;28;20041;-74
2022/05/09 01:49:30;;;;;;;19.00;4.45;;;5.70;99.90;;;;;;5054513;28;20048;-75
2022/05/09 01:51:58;;;;;;;19.42;4.65;;;5.70;99.90;;;;;;5056197;28;20144;-73
2022/05/09 01:54:24;;;;;;;22.23;4.25;;;5.70;99.90;;;;;;5054951;28;20045;-74
2022/05/09 01:56:49;;;;;;;17.83;3.88;;;5.60;99.90;;;;;;5055516;28;20426;-73
2022/05/09 01:59:16;;;;;;;19.38;3.92;;;5.60;99.90;;;;;;5053814;28;20481;-73
2022/05/09 02:01:51;;;;;;;19.52;3.88;;;5.50;99.90;;;;;;5054015;28;20095;-73
2022/05/09 02:04:17;;;;;;;19.92;3.90;;;5.50;99.90;;;;;;5055215;28;20092;-73
2022/05/09 02:06:43;;;;;;;17.90;3.40;;;5.50;99.90;;;;;;5054007;28;20096;-74
2022/05/09 02:09:09;;;;;;;20.25;3.90;;;5.50;99.90;;;;;;5055435;28;20056;-73
2022/05/09 02:11:35;;;;;;;18.88;3.75;;;5.50;99.90;;;;;;5055879;28;20090;-74
2022/05/09 02:14:02;;;;;;;18.17;4.20;;;5.50;99.90;;;;;;5054879;28;20052;-73
2022/05/09 02:16:28;;;;;;;18.98;4.57;;;5.50;99.90;;;;;;5054251;28;20130;-72
2022/05/09 02:18:54;;;;;;;16.77;4.28;;;5.50;99.90;;;;;;5054287;28;20478;-73
2022/05/09 02:21:20;;;;;;;19.88;4.25;;;5.50;99.90;;;;;;5055546;28;20037;-74
2022/05/09 02:23:45;;;;;;;21.45;4.35;;;5.50;99.90;;;;;;5055097;28;20061;-74
2022/05/09 02:26:11;;;;;;;21.75;4.93;;;5.50;99.90;;;;;;5041210;28;20141;-74
2022/05/09 02:28:37;;;;;;;17.20;4.75;;;5.40;99.90;;;;;;5059959;28;20091;-73
2022/05/09 02:31:03;;;;;;;15.70;4.40;;;5.40;99.90;;;;;;5060274;28;20051;-73
2022/05/09 02:33:29;;;;;;;27.83;5.00;;;5.40;99.90;;;;;;5045293;28;20053;-73
2022/05/09 02:35:55;;;;;;;24.33;5.72;;;5.30;99.90;;;;;;5061481;28;20057;-74
2022/05/09 02:38:24;;;;;;;19.05;5.25;;;5.30;99.90;;;;;;5059860;28;20049;-74
2022/05/09 02:40:51;;;;;;;19.38;5.50;;;5.40;99.90;;;;;;5060311;28;20045;-73
2022/05/09 02:43:17;;;;;;;;;;;5.30;99.90;;;;;;5043425;28;20084;-73
2022/05/09 02:45:43;;;;;;;24.15;5.80;;;5.30;99.90;;;;;;5059031;28;19920;-75
2022/05/09 02:48:10;;;;;;;18.75;5.60;;;5.30;99.90;;;;;;5059968;28;20045;-73
2022/05/09 02:50:36;;;;;;;20.48;5.65;;;5.20;99.90;;;;;;5058584;28;20049;-73
2022/05/09 02:53:03;;;;;;;22.23;4.47;;;5.20;99.90;;;;;;5060728;28;20076;-73
2022/05/09 02:55:31;;;;;;;20.63;4.07;;;5.20;99.90;;;;;;5044511;28;20190;-74
2022/05/09 02:57:58;;;;;;;16.95;4.55;;;5.20;99.90;;;;;;5060851;28;20049;-74
2022/05/09 03:00:26;;;;;;;21.10;4.57;;;5.20;99.90;;;;;;5059780;28;20052;-74
2022/05/09 03:05:38;;;;;;;18.70;6.05;;;5.20;99.90;;;;;;5059067;28;20056;-73
2022/05/09 03:08:05;;;;;;;19.95;5.10;;;5.10;99.90;;;;;;5041628;28;20044;-73
2022/05/09 03:10:31;;;;;;;17.92;4.88;;;5.10;99.90;;;;;;5056226;28;20118;-73
2022/05/09 03:13:01;;;;;;;16.58;4.55;;;5.10;99.90;;;;;;5057121;28;20053;-73
2022/05/09 03:15:29;;;;;;;21.20;4.88;;;5.10;99.90;;;;;;5055280;28;20128;-73
2022/05/09 03:17:55;;;;;;;20.58;4.88;;;5.00;99.90;;;;;;5056198;28;20087;-74
2022/05/09 03:20:22;;;;;;;18.83;4.47;;;5.10;99.90;;;;;;5058981;28;20103;-73
2022/05/09 03:22:48;;;;;;;20.52;5.05;;;5.00;99.90;;;;;;5042529;28;20076;-75
2022/05/09 03:25:14;;;;;;;25.40;6.00;;;5.00;99.90;;;;;;5057613;28;20077;-74
2022/05/09 03:27:40;;;;;;;21.87;4.87;;;5.00;99.90;;;;;;5057082;28;20073;-73
2022/05/09 03:30:07;;;;;;;21.00;4.78;;;5.00;99.90;;;;;;5056403;28;20103;-73
2022/05/09 03:32:35;;;;;;;20.40;5.15;;;5.00;99.90;;;;;;5055325;28;20045;-74
2022/05/09 03:35:05;;;;;;;20.00;5.32;;;5.00;99.90;;;;;;5055723;28;20397;-74
2022/05/09 03:37:31;;;;;;;22.20;5.13;;;4.90;99.90;;;;;;5054789;28;20113;-74
2022/05/09 03:39:57;;;;;;;24.05;5.70;;;4.90;99.90;;;;;;5055747;28;20045;-74
2022/05/09 03:42:23;;;;;;;27.55;6.28;;;4.90;99.90;;;;;;5055083;28;20075;-74
2022/05/09 03:44:49;;;;;;;24.00;5.32;;;4.90;99.90;;;;;;5055033;28;20049;-73
2022/05/09 03:47:15;;;;;;;23.67;5.65;;;4.80;99.90;;;;;;5073366;28;20501;-73
2022/05/09 03:49:41;;;;;;;20.33;5.70;;;4.90;99.90;;;;;;5057370;28;20049;-74
2022/05/09 03:52:07;;;;;;;19.50;5.03;;;4.80;99.90;;;;;;5056131;28;20055;-73
2022/05/09 03:54:33;;;;;;;19.85;5.72;;;4.90;99.90;;;;;;5055542;28;20056;-74
2022/05/09 03:56:59;;;;;;;20.92;4.78;;;4.90;99.90;;;;;;5055818;28;20059;-74
2022/05/09 03:59:24;;;;;;;24.90;5.75;;;4.90;99.90;;;;;;5053800;28;20445;-72
2022/05/09 04:01:50;;;;;;;18.90;4.93;;;4.90;99.90;;;;;;5020217;28;20053;-74
2022/05/09 04:04:16;;;;;;;31.63;5.60;;;4.90;99.90;;;;;;5054119;28;20068;-73
2022/05/09 04:06:42;;;;;;;21.55;5.72;;;4.90;99.90;;;;;;5037237;28;20055;-73
2022/05/09 04:09:08;;;;;;;20.27;5.03;;;4.90;99.90;;;;;;5054764;28;20123;-73
2022/05/09 04:11:35;;;;;;;28.30;5.60;;;5.00;99.90;;;;;;5037243;28;20095;-73
2022/05/09 04:14:00;;;;;;;22.58;5.90;;;4.90;99.90;;;;;;5052317;28;20394;-73
2022/05/09 04:19:11;;;;;;;27.95;5.00;;;5.00;99.90;;;;;;5051968;28;20052;-73
2022/05/09 04:21:37;;;;;;;24.23;5.40;;;5.10;99.90;;;;;;5085330;28;20087;-74
2022/05/09 04:24:03;;;;;;;25.02;5.22;;;5.00;99.90;;;;;;5052755;28;20088;-74
2022/05/09 04:26:31;;;;;;;17.70;5.07;;;5.10;99.90;;;;;;5052251;28;20434;-74
2022/05/09 04:28:57;;;;;;;19.95;5.93;;;5.20;99.90;;;;;;5053418;28;20365;-73
2022/05/09 04:31:23;;;;;;;22.73;6.18;;;5.20;99.90;;;;;;5035484;28;20045;-73
2022/05/09 04:33:50;;;;;;;25.42;5.55;;;5.30;99.90;;;;;;5052675;28;20048;-73
2022/05/09 04:36:16;;;;;;;18.55;5.38;;;5.40;99.90;;;;;;5051622;28;20053;-73
2022/05/09 04:38:43;;;;;;;26.85;6.70;;;5.50;99.90;;;;;;5051834;28;20055;-74
2022/05/09 04:41:10;;;;;;;;;;;5.60;99.90;;;;;;5051736;28;20528;-74
2022/05/09 04:43:37;;;;;;;21.42;5.60;;;5.60;99.90;;;;;;5052246;28;19924;-73
2022/05/09 04:46:04;;;;;;;15.65;5.75;;;5.70;99.90;;;;;;5052450;28;20497;-74
2022/05/09 04:48:30;;;;;;;;;;;5.80;99.90;;;;;;5051472;28;20055;-74
2022/05/09 04:50:57;;;;;;;28.13;6.07;;;5.80;99.90;;;;;;5052493;28;19920;-74
2022/05/09 04:53:24;;;;;;;27.92;5.93;;;5.90;99.90;;;;;;5052291;28;20142;-72
2022/05/09 04:55:50;;;;;;;;;;;6.00;99.90;;;;;;5035110;28;20202;-73
2022/05/09 04:58:18;;;;;;;22.73;5.50;;;6.20;99.90;;;;;;5052278;28;20016;-74
2022/05/09 05:00:45;;;;;;;17.70;4.90;;;6.30;99.90;;;;;;5052310;28;20045;-75
2022/05/09 05:03:11;;;;;;;28.75;6.25;;;6.50;99.90;;;;;;5034776;28;20041;-74
2022/05/09 05:05:37;;;;;;;22.30;5.38;;;6.60;99.90;;;;;;5051835;28;20064;-74
2022/05/09 05:08:03;;;;;;;24.13;6.07;;;6.70;99.90;;;;;;5052278;28;20157;-74
2022/05/09 05:10:30;;;;;;;20.65;5.43;;;6.80;99.90;;;;;;5035119;28;20049;-74
2022/05/09 05:12:58;;;;;;;21.58;6.13;;;6.90;99.90;;;;;;5050618;28;20049;-74
2022/05/09 05:15:25;;;;;;;24.35;5.78;;;7.00;99.90;;;;;;5050577;28;20060;-73
2022/05/09 05:17:51;;;;;;;17.58;5.57;;;7.10;99.90;;;;;;5052206;28;20052;-73
2022/05/09 05:20:17;;;;;;;20.58;5.85;;;7.10;99.90;;;;;;5051108;28;20454;-73
2022/05/09 05:22:48;;;;;;;15.68;6.20;;;7.20;99.90;;;;;;5050463;28;20120;-74
2022/05/09 05:25:18;;;;;;;19.55;5.20;;;7.20;99.90;;;;;;5033951;28;20420;-74
2022/05/09 05:27:45;;;;;;;23.00;5.95;;;7.30;99.90;;;;;;5068271;28;20081;-73
2022/05/09 05:30:11;;;;;;;28.95;6.88;;;7.50;99.90;;;;;;5052594;28;20055;-74
2022/05/09 05:32:39;;;;;;;28.75;6.60;;;7.60;99.90;;;;;;5052301;28;20120;-75
2022/05/09 05:35:07;;;;;;;21.90;6.10;;;7.70;99.90;;;;;;5051631;28;20404;-73
2022/05/09 05:37:34;;;;;;;19.85;5.72;;;7.80;99.90;;;;;;5052460;28;20182;-74
2022/05/09 05:40:00;;;;;;;18.67;5.50;;;7.80;99.90;;;;;;5052266;28;20124;-74
2022/05/09 05:42:27;;;;;;;23.60;6.70;;;8.00;99.90;;;;;;5034501;28;20088;-74
2022/05/09 05:44:53;;;;;;;20.38;6.03;;;8.10;99.90;;;;;;5051480;28;20053;-74
2022/05/09 05:47:20;;;;;;;22.42;5.78;;;8.20;99.90;;;;;;5034377;28;20126;-72
2022/05/09 05:49:46;;;;;;;14.93;5.22;;;8.40;99.90;;;;;;5037940;28;20132;-73
2022/05/09 05:52:13;;;;;;;22.70;5.80;;;8.50;99.90;;;;;;5055114;28;20108;-74
2022/05/09 05:54:42;;;;;;;28.48;5.90;;;8.60;99.90;;;;;;5054105;28;20056;-74
2022/05/09 05:57:19;;;;;;;22.13;5.47;;;8.70;99.90;;;;;;5055337;28;20045;-72
2022/05/09 06:00:12;;;;;;;20.67;5.97;;;8.80;99.90;;;;;;5055943;28;20041;-74
2022/05/09 06:02:38;;;;;;;18.02;5.35;;;8.90;99.90;;;;;;5051051;28;20733;-75
2022/05/09 06:05:06;;;;;;;20.10;6.50;;;9.00;99.90;;;;;;5038518;28;20049;-74
2022/05/09 06:07:32;;;;;;;24.83;5.75;;;9.10;99.90;;;;;;5055079;28;20060;-75
2022/05/09 06:09:58;;;;;;;20.92;5.53;;;9.10;99.90;;;;;;5055663;28;20049;-75
2022/05/09 06:12:25;;;;;;;21.92;6.15;;;9.20;99.90;;;;;;5037976;28;20426;-74
2022/05/09 06:17:38;;;;;;;21.48;5.53;;;9.40;99.90;;;;;;5054773;28;20144;-74
2022/05/09 06:20:09;;;;;;;22.88;5.80;;;9.40;99.90;;;;;;5053957;28;20371;-72
2022/05/09 06:22:38;;;;;;;31.08;6.13;;;9.50;99.90;;;;;;5053758;28;20048;-73
2022/05/09 06:25:13;;;;;;;27.77;6.25;;;9.60;99.90;;;;;;5037309;28;20053;-74
2022/05/09 06:27:40;;;;;;;16.98;4.85;;;9.60;99.90;;;;;;5056043;28;20075;-73
2022/05/09 06:30:08;;;;;;;18.35;5.00;;;9.70;99.90;;;;;;5054008;28;20052;-74
2022/05/09 06:32:34;;;;;;;22.10;5.43;;;9.80;99.90;;;;;;5054257;28;20102;-73
2022/05/09 06:35:01;;;;;;;23.90;5.78;;;9.90;99.90;;;;;;5054754;28;20048;-74
2022/05/09 06:37:29;;;;;;;26.15;6.05;;;10.00;99.90;;;;;;5054567;28;20060;-74
2022/05/09 06:39:55;;;;;;;22.77;5.68;;;10.00;99.90;;;;;;5038378;28;20422;-73
2022/05/09 06:42:21;;;;;;;18.77;5.13;;;10.10;99.90;;;;;;5038230;28;20127;-74
2022/05/09 06:44:46;;;;;;;21.50;6.45;;;10.20;99.90;;;;;;5053503;28;20123;-73
2022/05/09 06:47:12;;;;;;;20.73;4.90;;;10.40;99.90;;;;;;5053935;28;20037;-73
2022/05/09 06:49:38;;;;;;;19.65;5.65;;;10.50;99.90;;;;;;5037167;28;20045;-73
2022/05/09 06:52:04;;;;;;;19.20;5.25;;;10.60;99.90;;;;;;5053725;28;20045;-73
2022/05/09 06:54:30;;;;;;;22.17;5.60;;;10.70;99.90;;;;;;5053781;28;20109;-73
2022/05/09 06:56:56;;;;;;;18.42;5.13;;;10.80;99.90;;;;;;5037617;28;20084;-73
2022/05/09 06:59:22;;;;;;;18.80;5.60;;;10.90;99.90;;;;;;5052356;28;20060;-75
2022/05/09 07:01:50;;;;;;;22.45;5.47;;;11.10;99.90;;;;;;5053342;28;20373;-74
2022/05/09 07:04:17;;;;;;;23.90;5.32;;;11.20;99.90;;;;;;5054677;28;20056;-75
2022/05/09 07:06:43;;;;;;;19.55;5.30;;;11.30;99.90;;;;;;5053036;28;20060;-73
2022/05/09 07:09:10;;;;;;;25.33;5.67;;;11.40;99.90;;;;;;5052569;28;20496;-74
2022/05/09 07:11:36;;;;;;;23.52;5.95;;;11.50;99.90;;;;;;5052561;28;20437;-75
2022/05/09 07:14:03;;;;;;;22.85;5.45;;;11.60;99.90;;;;;;5053008;28;20056;-74
2022/05/09 07:16:28;;;;;;;20.65;5.38;;;11.80;99.90;;;;;;5052627;28;20424;-73
2022/05/09 07:18:54;;;;;;;19.65;5.18;;;11.90;99.90;;;;;;5053119;28;20122;-74
2022/05/09 07:21:20;;;;;;;21.83;5.63;;;11.90;99.90;;;;;;5054042;28;20041;-73
2022/05/09 07:23:49;;;;;;;21.83;6.05;;;12.10;99.90;;;;;;5053599;28;20091;-73
2022/05/09 07:26:15;;;;;;;20.02;5.10;;;12.20;99.90;;;;;;5035320;28;20064;-74
2022/05/09 07:28:42;;;;;;;21.30;5.75;;;12.20;99.90;;;;;;5035739;28;20080;-73
2022/05/09 07:31:09;;;;;;;25.55;5.80;;;12.40;99.90;;;;;;5053860;28;20112;-73
2022/05/09 07:33:35;;;;;;;22.38;6.68;;;12.50;99.90;;;;;;5053907;28;20148;-74
2022/05/09 07:36:02;;;;;;;16.40;5.40;;;12.60;99.90;;;;;;5036318;28;20053;-75
2022/05/09 07:38:28;;;;;;;20.53;5.50;;;12.70;99.90;;;;;;5053825;28;20338;-74
2022/05/09 07:40:54;;;;;;;25.40;6.03;;;12.80;99.90;;;;;;5053199;28;20052;-74
2022/05/09 07:43:26;;;;;;;17.98;5.93;;;12.90;99.90;;;;;;5052099;28;20049;-75
2022/05/09 07:45:54;;;;;;;19.25;5.88;;;13.10;99.90;;;;;;5053433;28;20055;-76
2022/05/09 07:48:21;;;;;;;22.08;6.65;;;13.20;99.90;;;;;;5053468;28;20122;-75
2022/05/09 07:50:48;;;;;;;16.90;5.35;;;13.30;99.90;;;;;;5053250;28;20049;-75
2022/05/09 07:53:20;;;;;;;17.73;5.03;;;13.40;99.90;;;;;;5053491;28;20053;-75
2022/05/09 07:55:47;;;;;;;16.70;5.25;;;13.50;99.90;;;;;;5053566;28;20049;-75
2022/05/09 07:58:13;;;;;;;19.00;5.40;;;13.60;99.90;;;;;;5052608;28;20419;-76
2022/05/09 08:00:42;;;;;;;17.65;5.47;;;13.70;99.90;;;;;;5052098;28;20211;-75
2022/05/09 08:03:14;;;;;;;16.75;5.05;;;13.90;99.90;;;;;;5052439;28;20131;-76
2022/05/09 08:05:41;;;;;;;24.38;5.53;;;14.00;99.90;;;;;;5035520;28;20465;-78
2022/05/09 08:08:07;;;;;;;18.98;5.35;;;14.10;99.90;;;;;;5052039;28;20118;-76
2022/05/09 08:10:32;;;;;;;15.25;4.97;;;14.20;99.90;;;;;;5053372;28;20048;-75
2022/05/09 08:12:58;;;;;;;18.90;6.53;;;14.20;99.90;;;;;;5035727;28;20408;-75
2022/05/09 08:15:26;;;;;;;18.20;5.15;;;;;;;;;;5052804;28;20044;-76
2022/05/09 08:17:52;;;;;;;19.30;5.68;;;;;;;;;;5052551;28;20481;-77
2022/05/09 08:20:20;;;;;;;17.23;5.00;;;;;;;;;;5052866;28;20084;-79
2022/05/09 08:22:47;;;;;;;14.80;4.75;;;;;;;;;;5051615;28;20057;-76
2022/05/09 08:25:14;;;;;;;18.08;4.57;;;;;;;;;;5051757;28;20103;-76
2022/05/09 08:27:41;;;;;;;14.45;4.53;;;;;;;;;;5051751;28;20053;-76
2022/05/09 08:30:08;;;;;;;17.48;4.50;;;;;;;;;;5051231;28;20044;-77
2022/05/09 08:32:36;;;;;;;20.33;5.15;;;;;;;;;;5052128;28;20053;-77
2022/05/09 08:35:03;;;;;;;18.67;5.35;;;;;;;;;;5051163;28;20208;-78
2022/05/09 08:37:29;;;;;;;21.25;4.95;;;;;;;;;;5052625;28;20064;-76
2022/05/09 08:39:55;;;;;;;18.10;4.77;;;16.20;99.90;;;;;;5051614;28;20052;-78
2022/05/09 08:42:33;;;;;;;18.40;4.93;;;15.60;99.90;;;;;;5052189;28;20037;-75
2022/05/09 08:45:11;;;;;;;15.93;4.32;;;15.60;99.90;;;;;;5052355;28;20132;-76
2022/05/09 08:47:41;;;;;;;15.27;5.00;;;15.80;99.90;;;;;;5034971;28;20049;-75
2022/05/09 08:50:30;;;;;;;18.65;4.78;;;15.90;99.90;;;;;;5051223;28;20106;-76
2022/05/09 08:53:00;;;;;;;23.00;5.25;;;15.90;99.90;;;;;;5034520;28;20045;-74
2022/05/09 08:55:38;;;;;;;21.02;5.05;;;16.00;99.90;;;;;;5034715;28;20089;-75
2022/05/09 08:58:37;;;;;;;17.50;5.13;;;15.90;99.90;;;;;;5051168;28;20118;-75
2022/05/09 09:01:30;;;;;;;16.30;5.25;;;16.10;99.90;;;;;;5034664;28;20422;-76
2022/05/09 09:04:03;;;;;;;17.70;3.88;;;16.20;99.30;;;;;;5047542;28;20061;-76
2022/05/09 09:06:50;;;;;;;17.50;4.18;;;16.30;99.90;;;;;;5052753;28;20045;-75
2022/05/09 09:09:29;;;;;;;18.83;3.42;;;16.50;99.90;;;;;;5052489;28;20128;-76
2022/05/09 09:12:07;;;;;;;14.30;3.55;;;16.60;99.90;;;;;;5034487;28;20481;-76
2022/05/09 09:14:38;;;;;;;19.83;3.03;;;16.70;99.90;;;;;;5050953;28;20041;-75
2022/05/09 09:17:18;;;;;;;7.32;2.50;;;16.80;99.90;;;;;;5052077;28;20102;-76
2022/05/09 09:20:29;;;;;;;14.13;3.00;;;17.00;96.90;;;;;;5035001;28;20146;-77
2022/05/09 09:23:14;;;;;;;12.50;2.95;;;17.00;96.80;;;;;;5049982;28;20208;-78
2022/05/09 09:26:03;;;;;;;15.00;3.22;;;17.00;95.90;;;;;;5054919;28;20396;-78
2022/05/09 09:28:47;;;;;;;12.68;2.78;;;17.10;95.80;;;;;;5054683;28;20091;-77
2022/05/09 09:31:26;;;;;;;11.73;2.45;;;17.10;93.40;;;;;;5054769;28;20116;-79
2022/05/09 09:34:14;;;;;;;10.38;2.17;;;17.50;99.80;;;;;;5038104;28;20072;-78
2022/05/09 09:36:48;;;;;;;12.27;2.17;;;17.50;92.10;;;;;;5056844;28;20047;-77
2022/05/09 09:39:19;;;;;;;11.05;2.10;;;17.50;89.70;;;;;;5038230;28;20127;-77
2022/05/09 09:41:46;;;;;;;10.88;2.42;;;17.70;90.20;;;;;;5054374;28;20090;-78
2022/05/09 09:44:16;;;;;;;;;;;17.80;90.80;;;;;;5022737;28;20106;-77
2022/05/09 09:47:03;;;;;;;11.05;2.38;;;17.90;88.20;;;;;;5037927;28;20011;-77
2022/05/09 09:49:30;;;;;;;11.18;2.00;;;17.90;88.40;;;;;;5054622;28;20107;-77
2022/05/09 09:51:57;;;;;;;;;;;18.00;84.10;;;;;;5022239;28;20103;-77
2022/05/09 09:54:35;;;;;;;11.45;2.50;;;18.00;85.70;;;;;;5054217;28;19944;-76
2022/05/09 09:57:28;;;;;;;11.95;2.85;;;18.10;81.70;;;;;;5054283;28;20454;-77
2022/05/09 09:59:54;;;;;;;14.35;3.17;;;18.10;80.70;;;;;;5048159;28;20063;-82
2022/05/09 10:02:27;;;;;;;17.90;3.70;;;18.10;81.10;;;;;;5054848;28;20056;-77
2022/05/09 10:04:58;;;;;;;11.20;2.92;;;18.20;83.40;;;;;;5037873;28;20295;-77
2022/05/09 10:07:33;;;;;;;9.98;2.83;;;18.20;83.70;;;;;;5037661;28;20053;-78
2022/05/09 10:10:04;;;;;;;17.27;3.47;;;18.30;80.80;;;;;;5054602;28;20056;-78
2022/05/09 10:12:32;;;;;;;10.48;2.90;;;18.40;82.60;;;;;;5056045;28;20063;-78
2022/05/09 10:15:03;;;;;;;15.40;3.42;;;18.50;80.80;;;;;;5056039;28;20041;-79
2022/05/09 10:17:32;;;;;;;15.35;3.15;;;18.60;76.40;;;;;;5054549;28;20158;-75
2022/05/09 10:20:00;;;;;;;11.10;3.10;;;18.60;77.60;;;;;;5038702;28;20370;-78
2022/05/09 10:25:33;;;;;;;11.10;3.28;;;18.80;79.70;;;;;;5053647;28;20099;-79
2022/05/09 10:28:10;;;;;;;13.13;2.97;;;18.80;74.40;;;;;;5055394;28;20160;-80
2022/05/09 10:30:40;;;;;;;11.13;2.58;;;18.90;77.70;;;;;;5055272;28;20045;-77
2022/05/09 10:33:31;;;;;;;10.50;2.10;;;19.10;80.30;;;;;;5053407;28;20148;-77
2022/05/09 10:36:04;;;;;;;14.07;2.55;;;19.20;79.20;;;;;;5054425;28;20056;-79
2022/05/09 10:38:37;;;;;;;11.65;3.08;;;19.30;75.20;;;;;;5053749;28;20041;-77
2022/05/09 10:41:13;;;;;;;12.43;2.63;;;19.20;76.70;;;;;;5036639;28;20060;-76
2022/05/09 10:44:00;;;;;;;13.75;3.20;;;19.30;76.40;;;;;;5054854;28;20045;-77
2022/05/09 10:46:41;;;;;;;11.52;2.80;;;19.10;69.40;;;;;;5053865;28;20044;-77
2022/05/09 10:49:13;;;;;;;16.05;2.97;;;19.30;72.10;;;;;;5036635;28;20084;-78
2022/05/09 10:52:09;;;;;;;12.38;2.47;;;19.20;70.90;;;;;;5037321;28;20394;-75
2022/05/09 10:54:55;;;;;;;6.25;2.22;;;19.30;71.90;;;;;;5053969;28;20059;-76
2022/05/09 10:58:17;;;;;;;11.77;2.65;;;19.60;71.50;;;;;;5036758;28;20135;-76
2022/05/09 11:00:58;;;;;;;10.68;2.42;;;19.70;72.70;;;;;;4995548;28;20042;-78
2022/05/09 11:03:40;;;;;;;13.25;2.65;;;19.60;71.60;;;;;;5012489;28;20122;-76
2022/05/09 11:06:22;;;;;;;8.55;2.15;;;19.70;74.10;;;;;;5034149;28;20056;-76
2022/05/09 11:08:57;;;;;;;10.68;2.40;;;19.80;72.90;;;;;;5055294;28;20041;-76
2022/05/09 11:12:01;;;;;;;12.13;2.60;;;19.80;73.30;;;;;;5055170;28;20092;-76
2022/05/09 11:14:48;;;;;;;11.82;2.30;;;19.80;69.10;;;;;;5041790;28;20453;-76
2022/05/09 11:17:34;;;;;;;8.98;2.67;;;19.80;70.60;;;;;;5053849;28;20066;-76
2022/05/09 11:20:18;;;;;;;13.10;2.72;;;20.10;69.70;;;;;;5023795;28;20055;-75
2022/05/09 11:23:11;;;;;;;11.60;2.35;;;20.00;66.70;;;;;;5055843;28;20044;-75
2022/05/09 11:25:58;;;;;;;13.15;2.70;;;20.20;70.30;;;;;;5055290;28;20059;-76
2022/05/09 11:28:45;;;;;;;10.77;2.30;;;20.10;65.30;;;;;;5058011;28;20068;-75
2022/05/09 11:31:33;;;;;;;13.73;2.30;;;19.70;64.80;;;;;;5058007;28;20041;-76
2022/05/09 11:34:20;;;;;;;10.27;2.00;;;19.90;68.20;;;;;;5061081;28;20059;-77
2022/05/09 11:37:23;;;;;;;9.32;2.15;;;20.10;67.90;;;;;;5063118;28;20080;-77
2022/05/09 11:40:14;;;;;;;11.13;1.98;;;20.30;68.70;;;;;;5062121;28;20095;-76
2022/05/09 11:46:11;;;;;;;14.98;2.40;;;20.40;63.70;;;;;;5060064;28;20406;-76
2022/05/09 11:49:07;;;;;;;14.10;2.40;;;20.20;62.00;;;;;;5063331;28;20182;-78
2022/05/09 11:51:56;;;;;;;13.10;1.92;;;20.30;66.90;;;;;;5062933;28;20049;-76
2022/05/09 11:54:34;;;;;;;10.38;1.88;;;20.50;64.80;;;;;;5061906;28;20049;-78
2022/05/09 11:57:26;;;;;;;7.60;1.95;;;20.60;65.50;;;;;;5062052;28;20052;-77
2022/05/09 12:00:04;;;;;;;10.68;1.65;;;20.60;63.20;;;;;;5052670;28;20108;-77
2022/05/09 12:02:53;;;;;;;12.25;2.33;;;20.70;66.90;;;;;;5061569;28;20045;-77
2022/05/09 12:05:38;;;;;;;10.05;1.45;;;20.80;64.80;;;;;;5043992;28;20132;-75
2022/05/09 12:08:05;;;;;;;8.30;1.80;;;21.00;65.40;;;;;;5063413;28;20109;-77
2022/05/09 12:10:35;;;;;;;7.82;1.50;;;21.10;65.50;;;;;;5061936;28;20133;-78
2022/05/09 12:13:35;;;;;;;7.57;1.70;;;21.20;63.10;;;;;;5061907;28;20331;-79
2022/05/09 12:16:01;;;;;;;8.35;1.50;;;21.10;58.50;;;;;;5059676;28;20181;-77
2022/05/09 12:18:43;;;;;;;8.53;1.77;;;21.10;60.20;;;;;;5043268;28;20084;-75
2022/05/09 12:21:21;;;;;;;8.35;1.65;;;21.10;60.00;;;;;;5064063;28;20647;-76
2022/05/09 12:23:47;;;;;;;7.68;1.85;;;21.20;61.80;;;;;;5046401;28;20143;-79
2022/05/09 12:26:33;;;;;;;;;;;21.40;62.30;;;;;;5059559;28;20116;-78
2022/05/09 12:29:11;;;;;;;8.65;1.75;;;21.50;61.30;;;;;;5092623;28;19931;-76
2022/05/09 12:31:45;;;;;;;6.30;1.55;;;21.40;56.30;;;;;;5043106;28;20037;-77
2022/05/09 12:34:13;;;;;;;8.70;1.75;;;21.40;59.90;;;;;;5061189;28;20044;-79
2022/05/09 12:36:39;;;;;;;8.68;1.33;;;21.40;59.30;;;;;;5059174;28;20082;-77
2022/05/09 12:39:16;;;;;;;5.40;1.45;;;21.30;56.70;;;;;;5037918;28;20099;-73
2022/05/09 12:41:49;;;;;;;5.78;1.38;;;21.40;59.40;;;;;;5037268;28;20045;-75
2022/05/09 12:44:23;;;;;;;5.03;1.30;;;21.60;59.00;;;;;;5057277;28;20055;-75
2022/05/09 12:47:01;;;;;;;7.55;1.77;;;21.80;59.60;;;;;;5057795;28;20052;-76
2022/05/09 12:49:45;;;;;;;9.40;1.70;;;21.90;59.40;;;;;;5059935;28;20048;-76
2022/05/09 12:52:22;;;;;;;10.40;1.33;;;21.80;56.40;;;;;;5059525;28;20049;-74
2022/05/09 12:57:38;;;;;;;8.40;1.58;;;21.70;56.00;;;;;;5053944;28;20344;-75
2022/05/09 13:00:17;;;;;;;10.95;1.70;;;21.70;55.90;;;;;;5052847;28;20053;-74
2022/05/09 13:02:44;;;;;;;9.77;1.50;;;21.80;57.30;;;;;;5034858;28;20064;-75
2022/05/09 13:05:13;;;;;;;11.50;1.95;;;21.70;55.70;;;;;;5053115;28;20049;-76
2022/05/09 13:07:59;;;;;;;9.90;2.20;;;21.60;53.40;;;;;;5051164;28;20052;-75
2022/05/09 13:10:27;;;;;;;9.35;2.17;;;21.70;57.40;;;;;;5051419;28;20049;-76
2022/05/09 13:13:00;;;;;;;7.07;1.45;;;21.70;57.30;;;;;;5051454;28;20405;-77
2022/05/09 13:15:27;;;;;;;8.90;1.90;;;21.70;57.50;;;;;;5035009;28;20116;-76
2022/05/09 13:18:07;;;;;;;7.55;1.60;;;21.80;56.10;;;;;;5051477;28;20048;-76
2022/05/09 13:20:48;;;;;;;6.45;1.65;;;21.90;57.30;;;;;;5051388;28;20550;-76
2022/05/09 13:23:14;;;;;;;12.60;1.95;;;22.10;57.20;;;;;;5051004;28;20087;-77
2022/05/09 13:25:52;;;;;;;10.17;1.30;;;22.30;56.10;;;;;;5050645;28;20187;-75
2022/05/09 13:28:21;;;;;;;13.63;1.90;;;22.10;54.60;;;;;;5035149;28;20116;-77
2022/05/09 13:30:55;;;;;;;7.80;1.98;;;22.00;53.40;;;;;;5052275;28;20118;-76